發表時間 文章標題 人氣 留言
2018-05-11 置頂 模型製作 (48) (3)
2018-11-27 ​​FREEDOM 1/48 R.O.C.AF F-CK-1D (87) (0)
2018-11-27 FREEDOM 1/48 R.O.C.AF F-CK-1C (84) (0)
2018-11-26 AFV戰鷹1/48 中華民國空軍F-CK-1C經國號戰機 (419) (1)
2018-09-11 KITTY HAWK 1/48 JAS-39 (321) (2)
2018-09-10 G.W.H 長城 1/48 MIG-29 (178) (0)
2018-09-03 HASAGAWA 1/48 A-4M (205) (0)
2018-09-01 KINETIC 1/48 F-16A BLOCK 20 401聯隊 6665 (441) (7)
2018-08-26 HASAGAWA 1/48 F/A-18AC (208) (0)
2018-08-20 1/35 油桶舊化製作 (124) (0)
2017-12-31 1/35 MAZDA K360 三輪車 (125) (2)
2017-12-30 德軍四聯砲地台製作 (103) (1)
2017-12-30 熊本城 (67) (0)
2017-10-17 TAMIYA 1/12 YAMAHA-M1 (249) (1)
2017-10-16 HASAGAWA 1/48 EA-18G (162) (0)
2017-10-16 HASAGAWA 1/48 FA-18D (112) (0)
2017-06-18 TAMIYA F-16CJ (322) (3)
2017-06-03 HASAGAWA 1/48 FA-18C (168) (0)
2017-03-13 TAMIYA 1/48 F-16CJ BLOCK 50 (1218) (2)
2017-03-13 R.O.C.AF F-16B 6813改6805 (201) (1)
2017-01-08 1/72 R.O.C.AF F-CK-1A (477) (1)
2016-10-22 RODEN 1/144 R.O.C.Air Force C-119G 3189 (339) (1)
2016-10-19 刀無極+邪天御武 (26) (1)
2016-10-01 KITTY HAWK 1/48 SEPECAT JAGUAR T.2/T.4 美洲虎雙座教練機 (366) (1)
2016-08-29 BRONCO威駿 1/48 CURTISS P-40C(HAWK81-A2)寇帝斯 P-40C飛虎隊 (356) (0)
2016-08-29 KINETIC 1/48 ROCAF F-16A/B 70TH FLYING TIGERS (443) (0)
2016-07-04 1/48 AIRCRAFT WEAPONS:E U.S.AIR-TO-AIR MISSILES & TARGET PODS (124) (1)
2016-05-22 KINETIC 1/48 ROCAF Mirage2000-5EI 機號2016 (434) (3)
2016-04-11 造型村 A-1H SKYRAIDER U.S.NAVY (226) (1)
2016-02-22 閃電霹靂車-凰呀--塗裝整修 (164) (0)
2016-02-01 Hasegawa 1/48 愛知九九艦上爆擊機一一型 (134) (2)
2015-12-20 MIRAGE F.1B-修改 (194) (1)
2015-11-23 HASEGAWA 1/48中島B6N2艦上攻擊機 天山一二型 (322) (0)
2015-10-25 Hasegawa 1/48 P-51D MUSTANG 製作過程 (2239) (1)
2015-10-08 AV-8B進廠整修 (367) (0)
2015-09-14 舊作~~小時候的第一次 (239) (0)
2015-08-22 BANDAI海賊王-千陽號 (235) (0)
2015-08-11 HASEGAWA 1/48 F-4F PHANTOM II (322) (0)
2015-08-08 KINETIC 1/48 ROCAF Mirage2000-5EI 機號2048 (524) (2)
2015-08-07 個人專屬工作室 (181) (3)
2014-07-11 AFV 1/48中華民國海軍500MD/ASW反潛直昇機(機號6901,6912) (402) (1)
2014-06-12 R.O.C.N 500MD (201) (0)
2014-05-11 KINETIC 1/48 ROCAF Mirage2000-5EI (866) (7)
2014-04-24 1/72 R.O.C.A. MIRAGE 2000-5EI (776) (3)
2014-04-18 KITTY HAWK 1/48 SH-2F (648) (0)
2014-04-15 MRC 1/48 H-34 (187) (0)
2014-04-11 TRUMPETER 1/48 HU-16A (319) (2)
2014-04-11 hasegawa 休斯300蛋機 (215) (0)
2013-12-03 搬家完成了,就定位了........ (110) (0)
2013-11-15 搬家了...... (38) (2)
1 23